Time;durP1;ratioP1;P1;durP2;ratioP2;P2;SDS_P1;SDS_P2;PMS_P1;PMS_P2;Temp;Humidity;BMP_temperature;BMP_pressure;BME280_temperature;BME280_humidity;BME280_pressure;Samples;Min_cycle;Max_cycle;Signal;HPM_P1;HPM_P2
2022/06/14 00:03:04;;;;;;;;;6.50;5.50;;;;;18.63;44.58;101941.25;5034747;28;45517;-88
2022/06/14 00:05:30;;;;;;;;;7.25;7.00;;;;;18.65;44.89;101942.03;5012512;28;45396;-88
2022/06/14 00:07:56;;;;;;;;;7.50;6.25;;;;;18.56;44.75;101935.38;5017151;28;45484;-89
2022/06/14 00:10:30;;;;;;;;;7.00;7.00;;;;;18.62;45.10;101942.16;5017102;28;45282;-88
2022/06/14 00:12:56;;;;;;;;;10.00;8.00;;;;;18.59;45.57;101942.31;4999374;28;45437;-88
2022/06/14 00:15:21;;;;;;;;;6.00;5.00;;;;;18.54;45.02;101936.38;4998273;28;45359;-89
2022/06/14 00:17:47;;;;;;;;;5.00;5.00;;;;;18.53;44.58;101939.91;5028770;28;45661;-89
2022/06/14 00:20:12;;;;;;;;;6.75;4.50;;;;;18.51;44.87;101936.50;5017215;28;52585;-89
2022/06/14 00:22:38;;;;;;;;;6.25;5.25;;;;;18.44;44.36;101935.88;5036066;28;45429;-89
2022/06/14 00:25:04;;;;;;;;;6.50;5.00;;;;;18.48;44.65;101944.53;5035799;28;45485;-89
2022/06/14 00:27:30;;;;;;;;;5.75;4.50;;;;;18.45;44.92;101934.97;5018065;28;45742;-89
2022/06/14 00:29:55;;;;;;;;;5.50;4.75;;;;;18.43;45.25;101938.63;5013496;28;45449;-89
2022/06/14 00:32:20;;;;;;;;;6.25;5.25;;;;;18.39;46.16;101937.88;5018017;28;45434;-89
2022/06/14 00:34:46;;;;;;;;;4.00;4.00;;;;;18.33;45.69;101933.75;4985785;28;45384;-89
2022/06/14 00:37:18;;;;;;;;;7.00;6.00;;;;;18.32;45.51;101945.19;4999188;28;47193;-89
2022/06/14 00:39:44;;;;;;;;;6.00;5.00;;;;;18.32;45.44;101941.72;5035212;28;45449;-89
2022/06/14 00:42:18;;;;;;;;;8.75;6.75;;;;;18.25;45.73;101932.34;4999933;28;45652;-90
2022/06/14 00:45:01;;;;;;;;;8.75;8.75;;;;;18.27;45.62;101939.25;5011902;28;45525;-89
2022/06/14 00:47:27;;;;;;;;;9.50;7.25;;;;;18.28;46.62;101942.75;5013997;28;45424;-88
2022/06/14 00:49:59;;;;;;;;;9.75;7.25;;;;;18.23;45.47;101935.03;5005662;28;45675;-89
2022/06/14 00:52:36;;;;;;;;;6.25;6.25;;;;;18.23;46.13;101939.47;4999952;28;45584;-89
2022/06/14 00:55:07;;;;;;;;;7.50;6.00;;;;;18.11;45.03;101928.50;5017078;28;45599;-89
2022/06/14 00:57:36;;;;;;;;;6.50;6.00;;;;;18.11;45.13;101928.50;5017972;28;48315;-89
2022/06/14 01:00:05;;;;;;;;;10.00;7.00;;;;;18.13;45.63;101936.34;5000270;28;45336;-89
2022/06/14 01:02:34;;;;;;;;;9.25;7.00;;;;;18.11;45.65;101933.78;5034517;28;45396;-89
2022/06/14 01:05:06;;;;;;;;;7.00;6.00;;;;;18.09;46.36;101940.00;5032152;28;45357;-90
2022/06/14 01:07:36;;;;;;;;;8.25;6.00;;;;;18.04;46.67;101934.09;5016768;28;47530;-90
2022/06/14 01:10:11;;;;;;;;;7.00;5.00;;;;;18.00;46.18;101930.75;4999558;28;45882;-89
2022/06/14 01:12:43;;;;;;;;;6.75;6.75;;;;;17.92;46.00;101923.16;5017545;28;45480;-90
2022/06/14 01:15:30;;;;;;;;;5.75;4.00;;;;;17.89;45.75;101931.16;5016012;28;45436;-90
2022/06/14 01:18:13;;;;;;;;;6.50;5.00;;;;;17.85;46.23;101928.72;5014004;28;46476;-89
2022/06/14 01:20:42;;;;;;;;;5.00;3.00;;;;;17.79;46.18;101922.75;5036568;28;46061;-89
2022/06/14 01:23:10;;;;;;;;;6.50;5.00;;;;;17.77;45.81;101916.69;5004922;28;45504;-89
2022/06/14 01:25:42;;;;;;;;;6.25;5.00;;;;;17.74;45.84;101911.53;4999137;28;45525;-89
2022/06/14 01:28:08;;;;;;;;;5.75;5.00;;;;;17.69;46.75;101900.34;4997907;28;47187;-89
2022/06/14 01:30:39;;;;;;;;;5.00;4.00;;;;;17.70;46.48;101914.34;5032078;28;45377;-89
2022/06/14 01:33:12;;;;;;;;;11.50;4.75;;;;;17.66;46.43;101908.34;4995045;28;45375;-90
2022/06/14 01:35:43;;;;;;;;;3.50;3.50;;;;;17.56;46.21;101897.34;4992037;28;45665;-89
2022/06/14 01:38:12;;;;;;;;;4.25;4.25;;;;;17.56;47.19;101910.50;5001162;28;47207;-90
2022/06/14 01:41:02;;;;;;;;;6.25;5.50;;;;;17.52;47.00;101913.31;4998855;28;45332;-90
2022/06/14 01:43:57;;;;;;;;;4.50;4.25;;;;;17.47;46.93;101908.22;5001047;28;45427;-90
2022/06/14 01:46:25;;;;;;;;;5.75;5.25;;;;;17.38;47.08;101904.19;5017786;28;45492;-89
2022/06/14 01:52:26;;;;;;;;;6.50;4.75;;;;;17.30;47.17;101894.88;5028973;28;45958;-89
2022/06/14 01:55:34;;;;;;;;;3.50;3.50;;;;;17.32;47.39;101899.16;5013285;28;45384;-90
2022/06/14 01:58:23;;;;;;;;;6.00;5.00;;;;;17.29;47.45;101891.41;5014422;28;45343;-89
2022/06/14 02:00:59;;;;;;;;;5.50;3.25;;;;;17.19;47.49;101882.13;4998104;28;48585;-90
2022/06/14 02:07:01;;;;;;;;;3.00;3.00;;;;;17.18;48.09;101891.81;5032826;28;45442;-89
2022/06/14 02:09:33;;;;;;;;;6.00;6.00;;;;;17.07;47.16;101866.81;5017348;28;45382;-89
2022/06/14 02:12:00;;;;;;;;;4.50;4.25;;;;;17.05;47.65;101874.78;5016523;28;47775;-89
2022/06/14 02:14:37;;;;;;;;;4.00;4.00;;;;;17.06;48.29;101884.38;5017304;28;45508;-90
2022/06/14 02:17:16;;;;;;;;;4.50;4.50;;;;;17.00;48.46;101866.19;5020477;28;45933;-89
2022/06/14 02:20:22;;;;;;;;;4.00;4.00;;;;;17.04;47.79;101878.31;5015489;28;45533;-90
2022/06/14 02:22:56;;;;;;;;;7.75;6.00;;;;;17.03;48.54;101882.72;4940144;28;47227;-90
2022/06/14 02:25:30;;;;;;;;;6.00;5.00;;;;;16.98;48.28;101891.72;4924498;28;45472;-89
2022/06/14 02:28:02;;;;;;;;;5.00;5.00;;;;;16.95;49.39;101894.44;4941565;28;45746;-89
2022/06/14 02:30:54;;;;;;;;;6.50;5.25;;;;;16.93;48.97;101888.38;4956813;28;45584;-90
2022/06/14 02:33:27;;;;;;;;;5.25;5.25;;;;;16.87;48.89;101878.09;4941147;28;46508;-90
2022/06/14 02:36:04;;;;;;;;;8.75;8.00;;;;;16.88;48.22;101893.78;4956891;28;45439;-90
2022/06/14 02:38:57;;;;;;;;;6.25;6.25;;;;;16.85;50.32;101895.72;4940586;28;45577;-89
2022/06/14 02:42:04;;;;;;;;;7.50;4.50;;;;;16.74;48.44;101877.66;4956554;28;45624;-90
2022/06/14 02:45:15;;;;;;;;;6.50;6.00;;;;;16.72;48.37;101880.34;4936080;28;46484;-90
2022/06/14 02:48:01;;;;;;;;;6.25;5.00;;;;;16.79;49.95;101884.47;4934875;28;45984;-90
2022/06/14 02:51:10;;;;;;;;;10.00;5.50;;;;;16.78;48.78;101881.88;4956276;28;45339;-89
2022/06/14 02:54:01;;;;;;;;;5.00;5.00;;;;;16.78;48.34;101887.16;4927631;28;45680;-90
2022/06/14 02:56:36;;;;;;;;;6.00;6.00;;;;;16.75;48.51;101877.63;4968752;28;46679;-89
2022/06/14 02:59:40;;;;;;;;;10.00;7.50;;;;;16.72;48.75;101866.34;5018227;28;45687;-89
2022/06/14 03:02:21;;;;;;;;;9.75;6.00;;;;;16.61;49.68;101854.44;5019741;28;45696;-89
2022/06/14 03:05:00;;;;;;;;;4.00;4.00;;;;;16.52;49.08;101852.13;5000728;28;45387;-90
2022/06/14 03:08:01;;;;;;;;;10.00;8.00;;;;;16.59;51.37;101863.31;5018140;28;47291;-89
2022/06/14 03:10:57;;;;;;;;;6.75;5.00;;;;;16.54;49.92;101863.44;4982585;28;45331;-89
2022/06/14 03:14:01;;;;;;;;;6.00;5.50;;;;;16.51;50.99;101863.59;5015189;28;45548;-90
2022/06/14 03:16:36;;;;;;;;;8.50;7.00;;;;;16.48;49.99;101861.06;5003034;28;45372;-89
2022/06/14 03:19:20;;;;;;;;;6.75;5.75;;;;;16.48;49.76;101865.47;5016548;28;48063;-92
2022/06/14 03:22:04;;;;;;;;;7.00;6.00;;;;;16.47;49.83;101861.94;5019732;28;45411;-90
2022/06/14 03:24:37;;;;;;;;;4.00;4.00;;;;;16.46;49.67;101857.63;5019653;28;45464;-90
2022/06/14 03:27:39;;;;;;;;;6.25;6.00;;;;;16.38;49.28;101850.03;5019497;28;45384;-89
2022/06/14 03:30:12;;;;;;;;;5.00;4.50;;;;;16.38;49.38;101857.91;5009927;28;47262;-90
2022/06/14 03:32:51;;;;;;;;;4.75;4.75;;;;;16.34;50.30;101856.28;5027521;28;45783;-90
2022/06/14 03:35:32;;;;;;;;;6.50;6.00;;;;;16.40;50.09;101866.59;5019444;28;45623;-89
2022/06/14 03:38:03;;;;;;;;;7.50;5.75;;;;;16.34;49.76;101852.81;5033270;28;45642;-89
2022/06/14 03:40:42;;;;;;;;;4.50;4.50;;;;;16.34;50.26;101847.53;5000888;28;47076;-90
2022/06/14 03:43:13;;;;;;;;;4.00;4.00;;;;;16.30;49.80;101849.41;5017153;28;45681;-90
2022/06/14 03:45:55;;;;;;;;;5.75;4.00;;;;;16.29;50.30;101849.47;5017516;28;45427;-89
2022/06/14 03:48:20;;;;;;;;;5.50;5.50;;;;;16.28;49.97;101847.78;5015065;28;45680;-89
2022/06/14 03:51:02;;;;;;;;;6.00;5.00;;;;;16.33;50.01;101859.84;4999926;28;47850;-89
2022/06/14 03:53:45;;;;;;;;;5.75;5.00;;;;;16.27;51.01;101852.19;5016344;28;47878;-90
2022/06/14 04:00:28;;;;;;;;;7.50;5.00;;;;;16.27;49.49;101860.06;5003006;28;45599;-91
2022/06/14 04:03:37;;;;;;;;;6.00;3.75;;;;;16.24;50.14;101860.16;5013332;28;46360;-92
2022/06/14 04:06:27;;;;;;;;;4.75;3.00;;;;;16.21;50.03;101862.88;5012469;28;45425;-90
2022/06/14 04:09:04;;;;;;;;;4.00;4.00;;;;;16.20;50.55;101859.41;4998212;28;45685;-90
2022/06/14 04:12:14;;;;;;;;;5.00;4.00;;;;;16.19;50.65;101862.91;4998026;28;45519;-90
2022/06/14 04:15:05;;;;;;;;;5.25;4.00;;;;;16.18;51.21;101868.25;5013326;28;46568;-89
2022/06/14 04:18:54;;;;;;;;;3.00;3.00;;;;;16.19;51.42;101867.31;4978083;28;45742;-89
2022/06/14 04:21:18;;;;;;;;;6.25;3.75;;;;;16.17;50.52;101869.16;4909458;28;45398;-89
2022/06/14 04:24:17;;;;;;;;;4.00;4.00;;;;;16.16;51.19;101863.06;4916727;28;45445;-90
2022/06/14 04:27:14;;;;;;;;;4.00;4.00;;;;;16.12;50.52;101860.56;4898681;28;45858;-89
2022/06/14 04:30:03;;;;;;;;;6.00;5.50;;;;;16.16;51.40;101859.56;4900492;28;45744;-90
2022/06/14 04:32:32;;;;;;;;;5.00;3.75;;;;;16.13;51.08;101857.88;4901029;28;45467;-89
2022/06/14 04:35:07;;;;;;;;;5.00;5.00;;;;;16.14;50.62;101858.75;4884699;28;45634;-90
2022/06/14 04:38:07;;;;;;;;;5.00;5.00;;;;;16.16;50.78;101856.94;4925858;28;46501;-90
2022/06/14 04:40:50;;;;;;;;;6.25;5.00;;;;;16.04;51.05;101837.19;4921578;28;45424;-89
2022/06/14 04:43:24;;;;;;;;;9.50;6.25;;;;;16.11;51.29;101853.63;4920411;28;45254;-90
2022/06/14 04:46:02;;;;;;;;;6.00;4.00;;;;;16.12;51.23;101852.69;4920233;28;45655;-89
2022/06/14 04:48:56;;;;;;;;;5.00;4.00;;;;;16.12;50.93;101848.31;4919472;28;48441;-90
2022/06/14 04:51:29;;;;;;;;;5.00;5.00;;;;;16.14;51.08;101842.97;4935020;28;45844;-89
2022/06/14 04:53:54;;;;;;;;;6.00;5.00;;;;;16.20;51.42;101851.53;4932769;28;45446;-89
2022/06/14 04:56:24;;;;;;;;;8.50;4.50;;;;;16.16;51.24;101843.81;4932506;28;45680;-90
2022/06/14 04:58:58;;;;;;;;;6.00;5.00;;;;;16.24;52.17;101854.91;5004973;28;47698;-90
2022/06/14 05:01:37;;;;;;;;;7.00;4.75;;;;;16.22;51.01;101856.72;5017252;28;46027;-89
2022/06/14 05:04:12;;;;;;;;;4.00;4.00;;;;;16.19;52.06;101859.44;5046549;28;45365;-89
2022/06/14 05:06:38;;;;;;;;;5.75;5.00;;;;;16.21;51.29;101848.00;5019499;28;45366;-90
2022/06/14 05:09:13;;;;;;;;;4.25;4.25;;;;;16.20;50.97;101848.88;5016600;28;47235;-89
2022/06/14 05:11:56;;;;;;;;;3.00;3.00;;;;;16.17;50.85;101830.59;5028881;28;45838;-91
2022/06/14 05:14:40;;;;;;;;;4.00;4.00;;;;;16.23;50.54;101832.16;5034892;28;45359;-90
2022/06/14 05:17:20;;;;;;;;;3.00;3.00;;;;;16.35;50.52;101858.00;5033695;28;45697;-90
2022/06/14 05:19:56;;;;;;;;;6.00;4.00;;;;;16.37;50.85;101852.69;5028675;28;47039;-90
2022/06/14 05:23:01;;;;;;;;;;;;;;;;;;;;;
2022/06/14 05:26:19;;;;;;;;;;;;;;;;;;;;;
2022/06/14 05:28:53;;;;;;;;;5.00;3.00;;;;;16.35;50.98;101839.63;4958037;28;69986;-90
2022/06/14 05:31:45;;;;;;;;;;;;;;;;;;;;;
2022/06/14 05:34:33;;;;;;;;;4.50;3.00;;;;;16.35;50.56;101838.75;5013407;28;72823;-91
2022/06/14 05:37:20;;;;;;;;;6.00;4.25;;;;;16.38;51.12;101836.88;5000706;28;45456;-92
2022/06/14 05:40:02;;;;;;;;;7.75;3.75;;;;;16.36;50.68;101851.84;5053551;28;45293;-91
2022/06/14 05:42:38;;;;;;;;;4.75;4.00;;;;;16.42;51.50;101859.50;5039723;28;46291;-92
2022/06/14 05:45:04;;;;;;;;;8.75;5.00;;;;;16.43;50.86;101848.06;5035609;28;45409;-93
2022/06/14 05:47:38;;;;;;;;;2.00;2.00;;;;;16.51;50.53;101853.06;5046066;28;45357;-93
2022/06/14 05:50:13;;;;;;;;;4.00;3.50;;;;;16.56;50.34;101852.88;5026641;28;45480;-92
2022/06/14 05:53:23;;;;;;;;;4.00;4.00;;;;;16.65;50.84;101853.41;5008968;28;48210;-91
2022/06/14 05:56:28;;;;;;;;;6.00;5.00;;;;;16.72;50.57;101853.19;5056142;27;45692;-90
2022/06/14 05:59:31;;;;;;;;;5.50;4.00;;;;;16.78;49.90;101850.34;4997745;28;45696;-90
2022/06/14 06:02:28;;;;;;;;;4.50;4.50;;;;;16.79;49.81;101841.50;4997252;28;44831;-87
2022/06/14 06:05:31;;;;;;;;;;;;;;;;;;;;;
2022/06/14 06:08:19;;;;;;;;;;;;;;;;;;;;;
2022/06/14 06:11:37;;;;;;;;;;;;;;;;;;;;;
2022/06/14 06:14:38;;;;;;;;;;;;;;;;;;;;;
2022/06/14 06:18:25;;;;;;;;;4.00;4.00;;;;;17.15;50.30;101833.19;4995034;28;74891;-92
2022/06/14 06:27:33;;;;;;;;;4.25;4.25;;;;;17.25;49.67;101821.38;4932035;28;45721;-92
2022/06/14 06:30:12;;;;;;;;;0.00;0.00;;;;;17.37;49.84;101820.88;4922802;28;48290;-94
2022/06/14 06:32:55;;;;;;;;;6.75;5.00;;;;;17.48;49.23;101823.09;4907178;28;45404;-94
2022/06/14 06:35:30;;;;;;;;;5.75;4.00;;;;;17.59;49.60;101828.78;4947228;28;45435;-94
2022/06/14 06:38:21;;;;;;;;;8.00;4.25;;;;;17.61;49.05;101821.66;4961608;28;45589;-95
2022/06/14 06:43:41;;;;;;;;;3.50;3.00;;;;;17.70;48.86;101830.97;4986326;28;45591;-96
2022/06/14 06:46:11;;;;;;;;;6.75;5.25;;;;;17.82;48.58;101826.97;4982406;28;45440;-89
2022/06/14 06:48:41;;;;;;;;;4.50;4.50;;;;;17.94;49.00;101828.22;4979300;28;45497;-93
2022/06/14 06:51:13;;;;;;;;;5.00;4.00;;;;;18.02;49.47;101820.88;4966891;28;47024;-95
2022/06/14 06:53:42;;;;;;;;;5.50;4.00;;;;;18.04;49.09;101824.31;4964129;28;45975;-91
2022/06/14 06:56:21;;;;;;;;;4.00;4.00;;;;;18.10;49.12;101826.66;4978779;28;45457;-92
2022/06/14 06:59:06;;;;;;;;;;;;;;;;;;;;;
2022/06/14 07:01:35;;;;;;;;;3.75;3.00;;;;;18.27;47.97;101812.75;5030860;28;75330;-92
2022/06/14 07:04:16;;;;;;;;;4.00;4.00;;;;;18.38;47.23;101821.03;5037815;28;45673;-95
2022/06/14 07:06:47;;;;;;;;;6.50;3.75;;;;;18.45;47.18;101818.13;5042083;28;45223;-95
2022/06/14 07:09:24;;;;;;;;;9.00;4.00;;;;;18.46;47.51;101796.09;5027420;28;45310;-96
2022/06/14 07:14:44;;;;;;;;;6.00;4.50;;;;;18.71;46.75;101811.69;5218134;22;45670;-96
2022/06/14 07:17:28;;;;;;;;;4.75;4.75;;;;;18.80;46.42;101800.69;5025716;28;45382;-95
2022/06/14 07:20:06;;;;;;;;;4.50;4.50;;;;;18.89;46.07;101802.09;5017998;28;45148;-96
2022/06/14 07:22:59;;;;;;;;;6.25;4.75;;;;;18.90;46.11;101788.81;5024436;28;46769;-96
2022/06/14 07:29:11;;;;;;;;;6.00;6.00;;;;;19.20;46.05;101801.47;5271586;22;44971;-96
2022/06/14 07:31:45;;;;;;;;;6.50;4.25;;;;;19.28;45.74;101793.19;5049626;28;45155;-94
2022/06/14 07:34:11;;;;;;;;;4.00;4.00;;;;;19.33;45.66;101796.44;5020933;28;47384;-88
2022/06/14 07:36:36;;;;;;;;;4.75;4.75;;;;;19.45;45.67;101793.22;5029060;28;45624;-91
2022/06/14 07:40:02;;;;;;;;;6.67;4.00;;;;;19.57;44.84;101794.38;5038527;28;45432;-91
2022/06/14 07:42:42;;;;;;;;;4.75;4.75;;;;;19.61;46.36;101779.22;4936527;28;45329;-90
2022/06/14 07:46:18;;;;;;;;;;;;;;;;;;;;;
2022/06/14 07:52:47;;;;;;;;;;;;;;;;;;;;;
2022/06/14 07:55:40;;;;;;;;;4.00;3.25;;;;;19.97;45.35;101778.34;4882832;29;71437;-88
2022/06/14 07:59:04;;;;;;;;;6.00;5.00;;;;;20.04;43.76;101777.06;4875923;29;48364;-88
2022/06/14 08:01:58;;;;;;;;;;;;;;;;;;;;;
2022/06/14 08:04:54;;;;;;;;;5.50;5.00;;;;;20.19;43.26;101780.69;4880066;29;45515;-87
2022/06/14 08:07:20;;;;;;;;;7.25;4.50;;;;;20.24;44.17;101773.38;4878587;29;45422;-87
2022/06/14 08:09:54;;;;;;;;;6.75;4.00;;;;;20.34;43.49;101768.44;4879457;29;45453;-87
2022/06/14 08:12:33;;;;;;;;;;;;;;;;;;;;;
2022/06/14 08:15:42;;;;;;;;;3.75;3.75;;;;;20.54;43.30;101749.72;4868323;29;68989;-87
2022/06/14 08:18:39;;;;;;;;;3.75;3.75;;;;;20.69;43.67;101756.00;4880115;28;45409;-87
2022/06/14 08:21:36;;;;;;;;;5.00;4.00;;;;;20.82;42.50;101751.72;4907660;28;48434;-87
2022/06/14 08:24:36;;;;;;;;;;;;;;;;;;;;;
2022/06/14 08:27:19;;;;;;;;;5.25;4.00;;;;;20.97;42.13;101747.34;4954391;28;67577;-89
2022/06/14 08:30:20;;;;;;;;;4.25;4.25;;;;;21.14;41.83;101754.31;4955580;28;45766;-88
2022/06/14 08:33:37;;;;;;;;;5.25;4.00;;;;;21.20;41.53;101740.72;4885351;29;47205;-90
2022/06/14 08:36:37;;;;;;;;;;;;;;;;;;;;;
2022/06/14 08:43:01;;;;;;;;;7.00;4.75;;;;;21.57;40.74;101733.31;4844622;29;45544;-90
2022/06/14 08:46:11;;;;;;;;;5.25;4.25;;;;;21.81;40.53;101746.03;4832124;29;47078;-90
2022/06/14 08:52:05;;;;;;;;;6.25;4.75;;;;;22.00;39.82;101748.41;4843843;29;46655;-88
2022/06/14 08:58:26;;;;;;;;;4.75;4.75;;;;;22.00;39.11;101733.34;4857341;29;45525;-89
2022/06/14 09:01:17;;;;;;;;;5.00;5.00;;;;;22.14;40.10;101739.59;4840409;29;45952;-90
2022/06/14 09:04:33;;;;;;;;;4.50;3.00;;;;;22.17;38.43;101728.81;4858495;28;45607;-88
2022/06/14 09:07:31;;;;;;;;;5.50;4.25;;;;;22.34;39.16;101730.44;4881404;28;45507;-87
2022/06/14 09:10:35;;;;;;;;;;;;;;;;;;;;;
2022/06/14 09:17:19;;;;;;;;;3.50;3.50;;;;;22.66;37.82;101736.38;4962318;28;45483;-88
2022/06/14 09:20:27;;;;;;;;;5.75;4.50;;;;;22.71;38.24;101736.06;4970410;28;45531;-89
2022/06/14 09:22:52;;;;;;;;;4.75;4.50;;;;;22.74;37.14;101733.22;4973029;28;46343;-89
2022/06/14 09:25:48;;;;;;;;;5.75;4.75;;;;;22.79;38.03;101742.56;4959156;28;45387;-88
2022/06/14 09:28:39;;;;;;;;;6.25;5.00;;;;;22.89;37.12;101728.72;4959404;28;45956;-87
2022/06/14 09:31:23;;;;;;;;;6.75;4.75;;;;;22.99;37.26;101738.63;4960860;28;45383;-88
2022/06/14 09:33:57;;;;;;;;;5.50;4.75;;;;;23.09;36.83;101724.78;4978176;28;47199;-86
2022/06/14 09:37:10;;;;;;;;;5.00;4.00;;;;;23.10;36.78;101724.66;5028678;28;45426;-91
2022/06/14 09:40:48;;;;;;;;;3.75;3.75;;;;;23.17;36.17;101719.78;4996730;28;45349;-90
2022/06/14 09:43:42;;;;;;;;;;;;;;;;;;;;;
2022/06/14 09:55:07;;;;;;;;;;;;;;;;;;;;;
2022/06/14 09:57:48;;;;;;;;;3.50;3.50;;;;;23.35;36.69;101733.66;4913095;28;45353;-91
2022/06/14 10:01:11;;;;;;;;;5.50;5.50;;;;;23.38;37.17;101710.41;4937335;28;47149;-91
2022/06/14 10:07:07;;;;;;;;;4.50;3.25;;;;;23.66;35.19;101712.94;4967074;28;45386;-88
2022/06/14 10:10:07;;;;;;;;;6.00;6.00;;;;;23.71;34.95;101709.03;4976440;28;45643;-89
2022/06/14 10:13:03;;;;;;;;;6.50;4.50;;;;;23.76;34.71;101714.88;4976135;28;46284;-89
2022/06/14 10:15:32;;;;;;;;;7.50;3.25;;;;;23.83;34.92;101706.50;4973456;28;45859;-88
2022/06/14 10:18:14;;;;;;;;;4.00;4.00;;;;;23.88;35.94;101715.00;4956790;28;45472;-90
2022/06/14 10:21:54;;;;;;;;;4.50;3.75;;;;;23.93;34.50;101708.41;4957231;28;45602;-89
2022/06/14 10:31:47;;;;;;;;;4.25;3.00;;;;;24.39;33.99;101706.97;4841491;29;45507;-91
2022/06/14 10:34:52;;;;;;;;;;;;;;;;;;;;;
2022/06/14 10:37:37;;;;;;;;;;;;;;;;;;;;;
2022/06/14 10:40:06;;;;;;;;;5.00;4.00;;;;;24.62;34.17;101688.50;4877676;28;72588;-88
2022/06/14 10:42:57;;;;;;;;;4.00;4.00;;;;;24.75;34.16;101680.44;4866465;29;45795;-89
2022/06/14 10:53:21;;;;;;;;;4.00;4.00;;;;;25.16;33.68;101676.50;4843316;29;45866;-89
2022/06/14 10:56:24;;;;;;;;;6.50;4.75;;;;;25.27;32.70;101672.06;4842944;29;45838;-89
2022/06/14 10:59:18;;;;;;;;;;;;;;;;;;;;;
2022/06/14 11:02:20;;;;;;;;;;;;;;;;;;;;;
2022/06/14 11:05:08;;;;;;;;;7.75;5.00;;;;;25.61;32.27;101652.59;4860319;29;73299;-88
2022/06/14 11:08:01;;;;;;;;;5.00;5.00;;;;;25.84;31.41;101669.47;4858986;29;45524;-88
2022/06/14 11:11:06;;;;;;;;;8.25;7.00;;;;;25.93;32.58;101663.44;4914218;28;45442;-88
2022/06/14 11:14:12;;;;;;;;;8.50;6.00;;;;;26.08;32.75;101648.03;4884549;29;48302;-88
2022/06/14 11:17:01;;;;;;;;;;;;;;;;;;;;;
2022/06/14 11:20:47;;;;;;;;;7.50;4.00;;;;;26.37;31.39;101632.31;4883994;28;69219;-91
2022/06/14 11:38:03;;;;;;;;;7.50;4.25;;;;;35.91;24.09;101616.47;5071494;28;45492;-91
2022/06/14 11:40:45;;;;;;;;;3.50;3.50;;;;;39.01;21.11;101617.72;5056480;28;45245;-90
2022/06/14 11:43:32;;;;;;;;;6.00;4.00;;;;;41.46;19.38;101626.41;5056679;28;45548;-89
2022/06/14 11:46:18;;;;;;;;;;;;;;;;;;;;;
2022/06/14 11:50:07;;;;;;;;;3.25;2.25;;;;;44.40;15.21;101610.91;5055022;28;74950;-90
2022/06/14 11:53:20;;;;;;;;;;;;;;;;;;;;;
2022/06/14 11:56:18;;;;;;;;;4.75;4.75;;;;;45.42;14.88;101618.97;4978126;28;70226;-91
2022/06/14 11:59:31;;;;;;;;;;;;;;;;;;;;;
2022/06/14 12:03:12;;;;;;;;;;;;;;;;;;;;;
2022/06/14 12:06:38;;;;;;;;;;;;;;;;;;;;;
2022/06/14 12:13:13;;;;;;;;;4.25;4.25;;;;;42.15;14.75;101596.88;4898468;29;45406;-93
2022/06/14 12:42:40;;;;;;;;;2.75;2.50;;;;;50.49;9.75;101559.72;4821912;29;45955;-95
2022/06/14 12:53:06;;;;;;;;;;;;;;;;;;;;;
2022/06/14 12:59:23;;;;;;;;;5.75;3.75;;;;;53.87;6.87;101576.09;4722298;30;45372;-96
2022/06/14 13:02:41;;;;;;;;;2.25;2.25;;;;;54.10;7.11;101566.56;4708598;30;45506;-96
2022/06/14 13:06:05;;;;;;;;;;;;;;;;;;;;;
2022/06/14 13:11:52;;;;;;;;;;;;;;;;;;;;;
2022/06/14 13:18:28;;;;;;;;;4.00;3.00;;;;;54.68;6.42;101555.47;4631625;30;45574;-96
2022/06/14 13:25:35;;;;;;;;;;;;;;;;;;;;;
2022/06/14 13:29:07;;;;;;;;;;;;;;;;;;;;;
2022/06/14 13:32:45;;;;;;;;;;;;;;;;;;;;;
2022/06/14 13:52:58;;;;;;;;;4.00;4.00;;;;;48.37;9.56;101480.41;6121181;23;45344;-95
2022/06/14 13:55:48;;;;;;;;;;;;;;;;;;;;;
2022/06/14 13:58:27;;;;;;;;;3.50;3.50;;;;;50.34;10.32;101485.13;6129004;23;68525;-96
2022/06/14 14:01:50;;;;;;;;;;;;;;;;;;;;;
2022/06/14 14:05:06;;;;;;;;;;;;;;;;;;;;;
2022/06/14 14:21:57;;;;;;;;;;;;;;;;;;;;;
2022/06/14 14:35:44;;;;;;;;;3.25;3.25;;;;;46.56;10.72;101429.00;5832125;24;44813;-94
2022/06/14 14:39:44;;;;;;;;;;;;;;;;;;;;;
2022/06/14 14:42:35;;;;;;;;;4.00;3.75;;;;;46.39;11.41;101411.84;5786228;24;74563;-94
2022/06/14 14:45:20;;;;;;;;;6.25;4.00;;;;;46.86;9.63;101405.44;5790431;24;45139;-95
2022/06/14 14:48:29;;;;;;;;;4.25;3.75;;;;;47.26;9.66;101404.69;5797885;24;45442;-93
2022/06/14 14:51:13;;;;;;;;;4.00;4.00;;;;;47.37;9.89;101407.44;5793851;24;44664;-94
2022/06/14 14:54:01;;;;;;;;;4.00;4.00;;;;;47.19;9.83;101395.00;5855120;24;45090;-94
2022/06/14 14:57:47;;;;;;;;;;;;;;;;;;;;;
2022/06/14 15:06:48;;;;;;;;;4.50;3.50;;;;;46.86;9.34;101392.47;5866492;24;45805;-95
2022/06/14 15:09:44;;;;;;;;;;;;;;;;;;;;;
2022/06/14 15:12:25;;;;;;;;;8.00;4.00;;;;;43.57;11.07;101380.28;5840274;24;69533;-91
2022/06/14 15:15:14;;;;;;;;;4.25;4.25;;;;;41.85;12.34;101385.56;5832022;24;45465;-90
2022/06/14 15:20:49;;;;;;;;;3.00;3.00;;;;;38.70;14.15;101385.25;5895764;24;45394;-96
2022/06/14 15:23:28;;;;;;;;;3.50;3.50;;;;;37.73;15.81;101376.00;5841949;24;45661;-89
2022/06/14 15:26:01;;;;;;;;;6.00;4.00;;;;;37.04;18.12;101372.50;5864860;24;45467;-90
2022/06/14 15:28:50;;;;;;;;;3.00;3.00;;;;;36.44;16.73;101366.81;5843210;24;45340;-89
2022/06/14 15:31:24;;;;;;;;;3.00;3.00;;;;;35.89;17.11;101366.66;5865402;24;45454;-91
2022/06/14 15:33:51;;;;;;;;;5.50;4.75;;;;;35.27;16.88;101355.47;5864557;24;45363;-88
2022/06/14 15:36:37;;;;;;;;;4.00;3.00;;;;;34.51;18.14;101353.06;5879966;23;45411;-88
2022/06/14 15:39:23;;;;;;;;;4.75;4.75;;;;;33.96;18.85;101353.47;5951117;23;45502;-88
2022/06/14 15:41:58;;;;;;;;;3.00;3.00;;;;;33.57;18.76;101344.50;6031063;23;45680;-88
2022/06/14 15:44:30;;;;;;;;;3.75;3.25;;;;;33.21;19.59;101336.16;6031901;23;45355;-88
2022/06/14 15:47:04;;;;;;;;;6.50;3.75;;;;;33.02;21.11;101340.13;6008072;23;45287;-86
2022/06/14 15:49:32;;;;;;;;;2.25;2.25;;;;;32.65;19.95;101339.81;6031966;23;45323;-86
2022/06/14 15:51:59;;;;;;;;;4.75;3.25;;;;;32.32;20.98;101331.00;6007370;23;45465;-85
2022/06/14 15:54:31;;;;;;;;;4.00;3.75;;;;;32.09;20.41;101338.97;6008428;23;45407;-89
2022/06/14 15:57:04;;;;;;;;;5.00;3.50;;;;;31.82;20.67;101331.06;6008056;23;45558;-88
2022/06/14 15:59:36;;;;;;;;;7.50;4.00;;;;;31.64;21.25;101330.41;6048155;22;46420;-88
2022/06/14 16:02:02;;;;;;;;;4.50;4.00;;;;;31.51;20.95;101333.59;6216118;22;45493;-88
2022/06/14 16:04:34;;;;;;;;;4.75;3.50;;;;;31.34;21.46;101330.03;6215736;22;45333;-88
2022/06/14 16:07:03;;;;;;;;;4.00;4.00;;;;;31.27;23.73;101337.91;6215817;22;45457;-85
2022/06/14 16:09:41;;;;;;;;;4.00;4.00;;;;;31.29;23.39;101340.44;6242275;22;46230;-86
2022/06/14 16:12:41;;;;;;;;;3.75;3.00;;;;;31.15;25.21;101330.31;6215885;22;45624;-87
2022/06/14 16:15:25;;;;;;;;;4.00;3.00;;;;;31.11;22.48;101323.59;6242827;22;45282;-87
2022/06/14 16:17:53;;;;;;;;;5.00;4.00;;;;;30.99;22.46;101323.06;6242444;22;45434;-87
2022/06/14 16:20:29;;;;;;;;;4.00;4.00;;;;;30.91;23.06;101315.84;6215931;22;46174;-87
2022/06/14 16:23:09;;;;;;;;;4.00;1.50;;;;;30.83;22.76;101315.75;6243777;22;45701;-88
2022/06/14 16:25:53;;;;;;;;;4.00;4.00;;;;;30.64;22.69;101315.03;6242760;22;45699;-87
2022/06/14 16:28:37;;;;;;;;;4.00;3.50;;;;;30.51;23.73;101314.63;6216253;22;45566;-87
2022/06/14 16:31:30;;;;;;;;;4.25;4.00;;;;;30.44;23.36;101311.78;6215623;22;48595;-88
2022/06/14 16:34:07;;;;;;;;;4.00;4.00;;;;;30.32;25.92;101304.13;6215322;22;45659;-88
2022/06/14 16:36:44;;;;;;;;;4.75;3.00;;;;;30.21;24.51;101302.56;6215888;22;45409;-87
2022/06/14 16:39:12;;;;;;;;;4.25;4.00;;;;;30.15;25.52;101304.03;6214844;22;45342;-88
2022/06/14 16:41:59;;;;;;;;;6.50;3.50;;;;;30.06;24.00;101305.81;6219142;22;45878;-91
2022/06/14 16:44:31;;;;;;;;;4.00;4.00;;;;;29.99;25.28;101306.63;6216923;22;45211;-88
2022/06/14 16:47:22;;;;;;;;;3.00;3.00;;;;;29.98;24.22;101305.78;6252642;22;45382;-91
2022/06/14 16:50:19;;;;;;;;;5.50;3.00;;;;;29.98;23.55;101292.34;6203364;22;45384;-94
2022/06/14 16:53:35;;;;;;;;;6.75;5.00;;;;;29.85;24.26;101287.41;6152064;22;48219;-91
2022/06/14 16:57:26;;;;;;;;;;;;;;;;;;;;;
2022/06/14 17:03:13;;;;;;;;;4.25;3.75;;;;;29.60;23.92;101297.06;5975830;23;45462;-90
2022/06/14 17:06:03;;;;;;;;;6.00;2.50;;;;;29.48;24.48;101288.44;5974772;23;47240;-90
2022/06/14 17:08:29;;;;;;;;;3.00;3.00;;;;;29.42;26.25;101291.75;5974864;23;45411;-89
2022/06/14 17:11:13;;;;;;;;;5.25;5.00;;;;;29.37;26.96;101280.63;5975040;23;45379;-87